Time;durP1;ratioP1;P1;durP2;ratioP2;P2;SDS_P1;SDS_P2;PMS_P1;PMS_P2;Temp;Humidity;BMP_temperature;BMP_pressure;BME280_temperature;BME280_humidity;BME280_pressure;Samples;Min_cycle;Max_cycle;Signal;HPM_P1;HPM_P2
2023/05/24 00:01:13;;;;;;;2.00;1.90;;;;;;;;;;5079184;28;20127;-77
2023/05/24 00:03:40;;;;;;;1.90;1.80;;;;;;;;;;5078813;28;20118;-77
2023/05/24 00:06:08;;;;;;;1.77;1.70;;;;;;;;;;5077766;28;20131;-77
2023/05/24 00:08:35;;;;;;;2.10;2.00;;;;;;;;;;5085803;28;20569;-77
2023/05/24 00:11:03;;;;;;;1.90;1.80;;;;;;;;;;5084017;28;20044;-77
2023/05/24 00:13:30;;;;;;;1.90;1.80;;;;;;;;;;5081098;28;20040;-77
2023/05/24 00:15:58;;;;;;;1.65;1.55;;;;;;;;;;5079386;28;20430;-77
2023/05/24 00:18:25;;;;;;;2.28;2.17;;;;;;;;;;5076471;28;20105;-78
2023/05/24 00:20:55;;;;;;;2.33;2.22;;;;;;;;;;5084906;28;20044;-77
2023/05/24 00:23:24;;;;;;;2.45;2.35;;;;;;;;;;5083061;28;20050;-77
2023/05/24 00:25:52;;;;;;;2.78;2.13;;;;;;;;;;5080892;28;20044;-77
2023/05/24 00:28:20;;;;;;;2.92;2.72;;;;;;;;;;5082594;28;20175;-77
2023/05/24 00:30:47;;;;;;;2.33;2.22;;;;;;;;;;5082422;28;20048;-77
2023/05/24 00:33:14;;;;;;;2.72;2.53;;;;;;;;;;5059425;28;20056;-77
2023/05/24 00:35:42;;;;;;;2.67;2.40;;;;;;;;;;5057628;28;20135;-77
2023/05/24 00:38:10;;;;;;;2.53;2.33;;;;;;;;;;5074963;28;20101;-77
2023/05/24 00:40:37;;;;;;;2.17;2.08;;;;;;;;;;5081068;28;20044;-76
2023/05/24 00:43:05;;;;;;;2.60;2.50;;;;;;;;;;5075668;28;20047;-76
2023/05/24 00:45:32;;;;;;;2.50;2.13;;;;;;;;;;5078919;28;20037;-77
2023/05/24 00:48:00;;;;;;;2.75;2.55;;;;;;;;;;5080587;28;20051;-77
2023/05/24 00:50:28;;;;;;;2.08;1.98;;;;;;;;;;5068960;28;20075;-76
2023/05/24 00:52:55;;;;;;;2.20;2.00;;;;;;;;;;5069806;28;20048;-76
2023/05/24 00:55:23;;;;;;;1.52;1.42;;;;;;;;;;5058357;28;20083;-77
2023/05/24 00:57:51;;;;;;;1.50;1.50;;;;;;;;;;5077146;28;20097;-77
2023/05/24 01:00:19;;;;;;;1.50;1.50;;;;;;;;;;5077518;28;20102;-77
2023/05/24 01:02:49;;;;;;;1.77;1.50;;;;;;;;;;5072495;28;20497;-77
2023/05/24 01:05:17;;;;;;;1.65;1.60;;;;;;;;;;5057604;28;20058;-77
2023/05/24 01:07:52;;;;;;;1.50;1.40;;;;;;;;;;5082709;28;20156;-76
2023/05/24 01:10:26;;;;;;;1.60;1.60;;;;;;;;;;5070129;28;20425;-77
2023/05/24 01:13:12;;;;;;;1.42;1.42;;;;;;;;;;5055503;28;20450;-76
2023/05/24 01:15:40;;;;;;;1.30;1.30;;;;;;;;;;5068685;28;20048;-76
2023/05/24 01:18:12;;;;;;;1.70;1.60;;;;;;;;;;5076854;28;20052;-77
2023/05/24 01:20:40;;;;;;;2.20;2.10;;;;;;;;;;5082431;28;20048;-77
2023/05/24 01:23:15;;;;;;;2.20;2.10;;;;;;;;;;5060856;28;20044;-77
2023/05/24 01:25:55;;;;;;;2.17;2.08;;;;;;;;;;5071085;28;20493;-77
2023/05/24 01:28:23;;;;;;;2.25;2.15;;;;;;;;;;5065055;28;20055;-77
2023/05/24 01:30:53;;;;;;;1.85;1.75;;;;;;;;;;5075635;28;20050;-77
2023/05/24 01:33:23;;;;;;;1.90;1.80;;;;;;;;;;5056017;28;20513;-77
2023/05/24 01:35:50;;;;;;;1.80;1.70;;;;;;;;;;5084061;28;20040;-76
2023/05/24 01:38:18;;;;;;;1.70;1.60;;;;;;;;;;5087848;28;20051;-77
2023/05/24 01:40:49;;;;;;;2.10;2.00;;;;;;;;;;5085700;28;20097;-76
2023/05/24 01:43:23;;;;;;;1.73;1.63;;;;;;;;;;5056664;28;20544;-77
2023/05/24 01:46:10;;;;;;;1.95;1.85;;;;;;;;;;5052869;28;20048;-77
2023/05/24 01:48:43;;;;;;;1.80;1.70;;;;;;;;;;5068152;28;20040;-77
2023/05/24 01:51:15;;;;;;;2.20;2.10;;;;;;;;;;5082109;28;20072;-77
2023/05/24 01:53:46;;;;;;;2.47;2.38;;;;;;;;;;5079184;28;20176;-76
2023/05/24 01:56:16;;;;;;;2.22;2.10;;;;;;;;;;5068490;28;20059;-76
2023/05/24 01:58:45;;;;;;;2.08;1.98;;;;;;;;;;5066140;28;20143;-76
2023/05/24 02:01:13;;;;;;;1.83;1.73;;;;;;;;;;5060439;28;20036;-77
2023/05/24 02:03:40;;;;;;;1.80;1.70;;;;;;;;;;5087784;28;20044;-77
2023/05/24 02:06:09;;;;;;;1.67;1.58;;;;;;;;;;5067459;28;20338;-77
2023/05/24 02:08:39;;;;;;;1.60;1.50;;;;;;;;;;5067089;28;20068;-76
2023/05/24 02:11:06;;;;;;;1.75;1.65;;;;;;;;;;5058711;28;20044;-77
2023/05/24 02:13:34;;;;;;;2.15;2.05;;;;;;;;;;5060660;28;20040;-76
2023/05/24 02:16:03;;;;;;;1.80;1.70;;;;;;;;;;5057362;28;20043;-77
2023/05/24 02:18:33;;;;;;;1.80;1.70;;;;;;;;;;5066985;28;20544;-76
2023/05/24 02:21:01;;;;;;;1.38;1.38;;;;;;;;;;5086734;28;20056;-76
2023/05/24 02:23:29;;;;;;;1.48;1.45;;;;;;;;;;5084587;28;20472;-77
2023/05/24 02:26:00;;;;;;;1.30;1.30;;;;;;;;;;5066172;28;20135;-76
2023/05/24 02:28:30;;;;;;;1.83;1.80;;;;;;;;;;5069575;28;20153;-76
2023/05/24 02:30:58;;;;;;;1.90;1.80;;;;;;;;;;5084424;28;20094;-76
2023/05/24 02:33:25;;;;;;;1.80;1.70;;;;;;;;;;5063962;28;20143;-77
2023/05/24 02:35:53;;;;;;;1.67;1.60;;;;;;;;;;5068621;28;20048;-77
2023/05/24 02:38:20;;;;;;;1.52;1.42;;;;;;;;;;5085313;28;20445;-77
2023/05/24 02:40:48;;;;;;;1.80;1.70;;;;;;;;;;5063426;28;20044;-76
2023/05/24 02:43:15;;;;;;;1.73;1.63;;;;;;;;;;5068157;28;20067;-76
2023/05/24 02:45:43;;;;;;;2.55;2.20;;;;;;;;;;5076366;28;20123;-77
2023/05/24 02:48:10;;;;;;;1.73;1.63;;;;;;;;;;5076700;28;20148;-76
2023/05/24 02:50:37;;;;;;;1.55;1.55;;;;;;;;;;5083235;28;20063;-77
2023/05/24 02:53:05;;;;;;;1.55;1.48;;;;;;;;;;5062959;28;20440;-77
2023/05/24 02:55:33;;;;;;;2.08;1.60;;;;;;;;;;5074677;28;20131;-77
2023/05/24 02:58:01;;;;;;;1.70;1.60;;;;;;;;;;5062913;28;20066;-77
2023/05/24 03:00:30;;;;;;;1.40;1.40;;;;;;;;;;5063405;28;20072;-76
2023/05/24 03:03:01;;;;;;;1.85;1.75;;;;;;;;;;5062988;28;20051;-76
2023/05/24 03:05:29;;;;;;;2.20;2.10;;;;;;;;;;5062707;28;20101;-77
2023/05/24 03:07:57;;;;;;;1.20;1.20;;;;;;;;;;5082470;28;20048;-77
2023/05/24 03:10:24;;;;;;;2.25;1.60;;;;;;;;;;5067732;28;20770;-76
2023/05/24 03:12:52;;;;;;;2.50;1.85;;;;;;;;;;5083383;28;20194;-76
2023/05/24 03:15:19;;;;;;;1.60;1.50;;;;;;;;;;5061425;28;20052;-76
2023/05/24 03:17:47;;;;;;;1.50;1.50;;;;;;;;;;5069589;28;20039;-76
2023/05/24 03:20:16;;;;;;;1.58;1.58;;;;;;;;;;5057708;28;20048;-76
2023/05/24 03:22:44;;;;;;;1.20;1.20;;;;;;;;;;5067797;28;20040;-76
2023/05/24 03:25:13;;;;;;;1.20;1.20;;;;;;;;;;5064432;28;20772;-76
2023/05/24 03:27:41;;;;;;;1.27;1.27;;;;;;;;;;5067035;28;20052;-76
2023/05/24 03:30:09;;;;;;;1.42;1.40;;;;;;;;;;5065799;28;20050;-76
2023/05/24 03:32:45;;;;;;;1.50;1.50;;;;;;;;;;5065182;28;20549;-76
2023/05/24 03:35:12;;;;;;;1.30;1.30;;;;;;;;;;5075868;28;20425;-76
2023/05/24 03:37:40;;;;;;;1.42;1.38;;;;;;;;;;5078533;28;20072;-76
2023/05/24 03:40:08;;;;;;;1.40;1.40;;;;;;;;;;5063567;28;20044;-76
2023/05/24 03:43:07;;;;;;;1.33;1.30;;;;;;;;;;5069824;28;20036;-76
2023/05/24 03:45:44;;;;;;;1.10;1.10;;;;;;;;;;5050828;28;20052;-76
2023/05/24 03:48:12;;;;;;;1.50;1.50;;;;;;;;;;5067873;28;20046;-76
2023/05/24 03:50:40;;;;;;;1.60;1.50;;;;;;;;;;5066037;28;20119;-76
2023/05/24 03:53:08;;;;;;;1.50;1.40;;;;;;;;;;5058702;28;20048;-76
2023/05/24 03:55:36;;;;;;;1.70;1.60;;;;;;;;;;5063351;28;20071;-76
2023/05/24 03:58:03;;;;;;;1.55;1.50;;;;;;;;;;5064500;28;20520;-76
2023/05/24 04:00:30;;;;;;;1.52;1.42;;;;;;;;;;5064095;28;20044;-76
2023/05/24 04:02:59;;;;;;;1.90;1.80;;;;;;;;;;5058557;28;20039;-76
2023/05/24 04:05:28;;;;;;;1.77;1.67;;;;;;;;;;5067162;28;20040;-76
2023/05/24 04:07:56;;;;;;;1.45;1.40;;;;;;;;;;5067413;28;20097;-76
2023/05/24 04:10:24;;;;;;;1.60;1.50;;;;;;;;;;5063164;28;20052;-77
2023/05/24 04:12:51;;;;;;;1.48;1.48;;;;;;;;;;5064335;28;20040;-76
2023/05/24 04:15:20;;;;;;;1.70;1.60;;;;;;;;;;5061758;28;20127;-76
2023/05/24 04:17:53;;;;;;;1.35;1.35;;;;;;;;;;5064641;28;20044;-76
2023/05/24 04:20:26;;;;;;;1.40;1.40;;;;;;;;;;5059914;28;20503;-76
2023/05/24 04:22:54;;;;;;;1.55;1.45;;;;;;;;;;5075844;28;20055;-76
2023/05/24 04:25:22;;;;;;;1.33;1.30;;;;;;;;;;5066843;28;20094;-76
2023/05/24 04:27:50;;;;;;;1.92;1.73;;;;;;;;;;5065135;28;20052;-77
2023/05/24 04:30:17;;;;;;;1.40;1.30;;;;;;;;;;5082742;28;20052;-76
2023/05/24 04:32:45;;;;;;;1.80;1.60;;;;;;;;;;5053750;28;20462;-76
2023/05/24 04:35:13;;;;;;;1.27;1.27;;;;;;;;;;5066270;28;20044;-76
2023/05/24 04:37:40;;;;;;;1.80;1.70;;;;;;;;;;5061698;28;20131;-76
2023/05/24 04:40:08;;;;;;;1.40;1.40;;;;;;;;;;5071566;28;20040;-76
2023/05/24 04:42:35;;;;;;;1.48;1.40;;;;;;;;;;5076054;28;20044;-76
2023/05/24 04:45:03;;;;;;;1.20;1.20;;;;;;;;;;5079002;28;20129;-75
2023/05/24 04:47:31;;;;;;;1.50;1.40;;;;;;;;;;5080672;28;20043;-75
2023/05/24 04:49:58;;;;;;;1.48;1.38;;;;;;;;;;5072320;28;20052;-76
2023/05/24 04:52:26;;;;;;;1.50;1.50;;;;;;;;;;5076997;28;20464;-76
2023/05/24 04:54:54;;;;;;;1.23;1.23;;;;;;;;;;5079025;28;20142;-76
2023/05/24 04:57:21;;;;;;;1.40;1.40;;;;;;;;;;5080155;28;20044;-76
2023/05/24 04:59:49;;;;;;;1.35;1.35;;;;;;;;;;5081562;28;20486;-76
2023/05/24 05:02:16;;;;;;;1.10;1.10;;;;;;;;;;5082027;28;20040;-76
2023/05/24 05:04:44;;;;;;;1.25;1.25;;;;;;;;;;5080148;28;20074;-76
2023/05/24 05:07:11;;;;;;;1.20;1.20;;;;;;;;;;5082179;28;20048;-75
2023/05/24 05:09:40;;;;;;;1.20;1.20;;;;;;;;;;5081169;28;20052;-76
2023/05/24 05:12:13;;;;;;;1.63;1.55;;;;;;;;;;5058459;28;20058;-76
2023/05/24 05:14:40;;;;;;;1.30;1.30;;;;;;;;;;5081361;28;20060;-76
2023/05/24 05:17:08;;;;;;;1.13;1.10;;;;;;;;;;5078616;28;20040;-75
2023/05/24 05:19:36;;;;;;;1.10;1.10;;;;;;;;;;5078336;28;20036;-76
2023/05/24 05:22:03;;;;;;;1.20;1.20;;;;;;;;;;5075597;28;20063;-76
2023/05/24 05:24:31;;;;;;;1.50;1.50;;;;;;;;;;5081080;28;20073;-76
2023/05/24 05:27:02;;;;;;;1.50;1.40;;;;;;;;;;5060892;28;20082;-76
2023/05/24 05:29:30;;;;;;;1.30;1.30;;;;;;;;;;5077129;28;20044;-76
2023/05/24 05:31:57;;;;;;;1.30;1.30;;;;;;;;;;5076264;28;20044;-77
2023/05/24 05:34:25;;;;;;;1.48;1.30;;;;;;;;;;5070807;28;20796;-76
2023/05/24 05:36:52;;;;;;;1.70;1.70;;;;;;;;;;5083234;28;20036;-77
2023/05/24 05:39:20;;;;;;;1.02;1.02;;;;;;;;;;5076616;28;20047;-76
2023/05/24 05:41:47;;;;;;;1.00;1.00;;;;;;;;;;5069883;28;20074;-78
2023/05/24 05:44:15;;;;;;;1.10;0.90;;;;;;;;;;5071640;28;20102;-76
2023/05/24 05:46:44;;;;;;;1.48;1.10;;;;;;;;;;5073282;28;20048;-76
2023/05/24 05:49:14;;;;;;;1.00;0.90;;;;;;;;;;5073004;28;20134;-76
2023/05/24 05:51:42;;;;;;;0.82;0.82;;;;;;;;;;5077173;28;20127;-76
2023/05/24 05:54:14;;;;;;;1.02;1.02;;;;;;;;;;5082114;28;20156;-76
2023/05/24 05:56:46;;;;;;;1.10;1.10;;;;;;;;;;5081385;28;20048;-77
2023/05/24 05:59:14;;;;;;;0.90;0.90;;;;;;;;;;5082977;28;20048;-76
2023/05/24 06:01:44;;;;;;;1.10;1.10;;;;;;;;;;5078304;28;20051;-76
2023/05/24 06:04:12;;;;;;;0.90;0.90;;;;;;;;;;5068806;28;20049;-76
2023/05/24 06:06:40;;;;;;;1.00;1.00;;;;;;;;;;5073751;28;20127;-77
2023/05/24 06:09:07;;;;;;;0.73;0.73;;;;;;;;;;5081637;28;20044;-76
2023/05/24 06:11:35;;;;;;;1.00;1.00;;;;;;;;;;5081610;28;20098;-76
2023/05/24 06:14:02;;;;;;;0.93;0.93;;;;;;;;;;5070839;28;20756;-76
2023/05/24 06:16:31;;;;;;;1.40;0.77;;;;;;;;;;5075291;28;20083;-76
2023/05/24 06:18:58;;;;;;;0.80;0.80;;;;;;;;;;5077337;28;20514;-76
2023/05/24 06:21:35;;;;;;;0.77;0.77;;;;;;;;;;5070684;28;20520;-76
2023/05/24 06:24:03;;;;;;;0.88;0.88;;;;;;;;;;5078116;28;20060;-76
2023/05/24 06:26:30;;;;;;;0.80;0.80;;;;;;;;;;5080033;28;20122;-76
2023/05/24 06:28:58;;;;;;;0.73;0.73;;;;;;;;;;5080969;28;20043;-76
2023/05/24 06:31:25;;;;;;;0.70;0.70;;;;;;;;;;5076610;28;20048;-76
2023/05/24 06:33:53;;;;;;;1.92;0.70;;;;;;;;;;5063362;28;20556;-76
2023/05/24 06:36:41;;;;;;;0.70;0.70;;;;;;;;;;5076871;28;20469;-76
2023/05/24 06:39:17;;;;;;;1.65;1.33;;;;;;;;;;5078797;28;20071;-76
2023/05/24 06:41:45;;;;;;;1.02;1.02;;;;;;;;;;5078943;28;20048;-75
2023/05/24 06:44:13;;;;;;;0.80;0.80;;;;;;;;;;5089074;28;20044;-75
2023/05/24 06:46:41;;;;;;;0.93;0.93;;;;;;;;;;5066944;28;20047;-76
2023/05/24 06:49:08;;;;;;;0.70;0.70;;;;;;;;;;5086876;28;20097;-76
2023/05/24 06:51:37;;;;;;;0.70;0.70;;;;;;;;;;5081008;28;20570;-76
2023/05/24 06:54:04;;;;;;;3.42;0.90;;;;;;;;;;5087873;28;20520;-77
2023/05/24 06:56:31;;;;;;;1.02;0.70;;;;;;;;;;5086604;28;20557;-76
2023/05/24 06:58:59;;;;;;;1.00;0.75;;;;;;;;;;5086292;28;20554;-76
2023/05/24 07:01:28;;;;;;;1.02;1.00;;;;;;;;;;5086589;28;20482;-76
2023/05/24 07:03:56;;;;;;;0.73;0.73;;;;;;;;;;5078063;28;20349;-77
2023/05/24 07:06:24;;;;;;;1.00;1.00;;;;;;;;;;5084066;28;20052;-76
2023/05/24 07:08:51;;;;;;;0.80;0.80;;;;;;;;;;5080607;28;20052;-77
2023/05/24 07:11:18;;;;;;;0.60;0.60;;;;;;;;;;5085530;28;20130;-76
2023/05/24 07:13:46;;;;;;;0.75;0.75;;;;;;;;;;5079913;28;20041;-77
2023/05/24 07:16:13;;;;;;;2.50;0.80;;;;;;;;;;5083727;28;20056;-77
2023/05/24 07:18:41;;;;;;;0.73;0.73;;;;;;;;;;5078548;28;20568;-76
2023/05/24 07:21:08;;;;;;;0.80;0.80;;;;;;;;;;5078680;28;20123;-76
2023/05/24 07:23:37;;;;;;;0.60;0.60;;;;;;;;;;5080570;28;20414;-76
2023/05/24 07:26:04;;;;;;;0.80;0.80;;;;;;;;;;5078154;28;20473;-77
2023/05/24 07:28:33;;;;;;;0.73;0.73;;;;;;;;;;5076244;28;20097;-76
2023/05/24 07:31:00;;;;;;;0.90;0.90;;;;;;;;;;5074970;28;20044;-76
2023/05/24 07:33:27;;;;;;;0.70;0.70;;;;;;;;;;5085299;28;20420;-76
2023/05/24 07:35:55;;;;;;;0.80;0.80;;;;;;;;;;5074573;28;20075;-77
2023/05/24 07:38:22;;;;;;;0.70;0.70;;;;;;;;;;5078010;28;20094;-75
2023/05/24 07:40:51;;;;;;;0.60;0.60;;;;;;;;;;5080371;28;20072;-76
2023/05/24 07:43:18;;;;;;;0.50;0.50;;;;;;;;;;5082949;28;20044;-76
2023/05/24 07:45:46;;;;;;;0.60;0.60;;;;;;;;;;5086891;28;20437;-76
2023/05/24 07:48:13;;;;;;;0.80;0.80;;;;;;;;;;5076074;28;20539;-76
2023/05/24 07:50:41;;;;;;;0.70;0.70;;;;;;;;;;5081467;28;20044;-76
2023/05/24 07:53:09;;;;;;;0.60;0.60;;;;;;;;;;5077480;28;20040;-76
2023/05/24 07:55:36;;;;;;;0.55;0.50;;;;;;;;;;5078190;28;20080;-75
2023/05/24 07:58:04;;;;;;;0.70;0.70;;;;;;;;;;5075782;28;20041;-77
2023/05/24 08:00:32;;;;;;;0.70;0.70;;;;;;;;;;5077050;28;20494;-76
2023/05/24 08:02:59;;;;;;;0.80;0.80;;;;;;;;;;5054702;28;20090;-76
2023/05/24 08:05:27;;;;;;;0.93;0.93;;;;;;;;;;5084211;28;20051;-75
2023/05/24 08:07:55;;;;;;;0.70;0.70;;;;;;;;;;5075645;28;20052;-75
2023/05/24 08:10:22;;;;;;;0.70;0.70;;;;;;;;;;5079643;28;20428;-76
2023/05/24 08:12:53;;;;;;;0.80;0.80;;;;;;;;;;5085462;28;20044;-75
2023/05/24 08:15:20;;;;;;;0.70;0.70;;;;;;;;;;5085786;28;20076;-76
2023/05/24 08:17:48;;;;;;;0.80;0.80;;;;;;;;;;5085360;28;20044;-76
2023/05/24 08:20:16;;;;;;;0.65;0.65;;;;;;;;;;5085106;28;20101;-76
2023/05/24 08:22:44;;;;;;;0.73;0.73;;;;;;;;;;5084815;28;20043;-76
2023/05/24 08:25:11;;;;;;;1.00;1.00;;;;;;;;;;5084658;28;20464;-76
2023/05/24 08:27:39;;;;;;;0.82;0.82;;;;;;;;;;5084443;28;20131;-76
2023/05/24 08:30:07;;;;;;;1.38;0.70;;;;;;;;;;5085163;28;20128;-75
2023/05/24 08:32:35;;;;;;;0.52;0.52;;;;;;;;;;5084587;28;20052;-77
2023/05/24 08:35:03;;;;;;;0.70;0.70;;;;;;;;;;5066903;28;20505;-76
2023/05/24 08:37:47;;;;;;;0.70;0.70;;;;;;;;;;5085916;28;20086;-76
2023/05/24 08:40:15;;;;;;;0.70;0.70;;;;;;;;;;5085299;28;20463;-76
2023/05/24 08:42:44;;;;;;;0.60;0.60;;;;;;;;;;5084887;28;20494;-76
2023/05/24 08:45:13;;;;;;;0.80;0.80;;;;;;;;;;5084742;28;20071;-76
2023/05/24 08:47:41;;;;;;;0.77;0.77;;;;;;;;;;5085021;28;20054;-76
2023/05/24 08:50:09;;;;;;;0.70;0.70;;;;;;;;;;5075998;28;20048;-76
2023/05/24 08:52:38;;;;;;;0.80;0.80;;;;;;;;;;5079196;28;20043;-76
2023/05/24 08:55:06;;;;;;;0.60;0.60;;;;;;;;;;5085039;28;20461;-76
2023/05/24 08:57:38;;;;;;;0.70;0.70;;;;;;;;;;5084768;28;20040;-76
2023/05/24 09:00:08;;;;;;;0.68;0.68;;;;;;;;;;5083195;28;20044;-76
2023/05/24 09:02:37;;;;;;;0.60;0.60;;;;;;;;;;5083974;28;20036;-77
2023/05/24 09:05:05;;;;;;;0.75;0.75;;;;;;;;;;5082099;28;20052;-76
2023/05/24 09:07:33;;;;;;;0.60;0.60;;;;;;;;;;5079901;28;20040;-77
2023/05/24 09:10:04;;;;;;;0.93;0.93;;;;;;;;;;5082354;28;20621;-76
2023/05/24 09:12:32;;;;;;;4.03;0.87;;;;;;;;;;5079027;28;20109;-76
2023/05/24 09:15:05;;;;;;;1.00;1.00;;;;;;;;;;5080938;28;20855;-76
2023/05/24 09:17:34;;;;;;;3.47;1.17;;;;;;;;;;5084378;28;20112;-76
2023/05/24 09:20:03;;;;;;;0.70;0.70;;;;;;;;;;5084050;28;20040;-76
2023/05/24 09:22:32;;;;;;;0.70;0.70;;;;;;;;;;5082157;28;20054;-77
2023/05/24 09:25:03;;;;;;;1.27;0.60;;;;;;;;;;5079642;28;20048;-76
2023/05/24 09:27:31;;;;;;;0.80;0.80;;;;;;;;;;5079299;28;20153;-77
2023/05/24 09:30:00;;;;;;;0.60;0.60;;;;;;;;;;5074129;28;20077;-76
2023/05/24 09:32:28;;;;;;;0.70;0.70;;;;;;;;;;5077574;28;20436;-77
2023/05/24 09:34:57;;;;;;;0.80;0.80;;;;;;;;;;5080261;28;20421;-77
2023/05/24 09:37:28;;;;;;;0.80;0.80;;;;;;;;;;5074175;28;20070;-76
2023/05/24 09:39:59;;;;;;;0.77;0.77;;;;;;;;;;5075607;28;20586;-77
2023/05/24 09:42:27;;;;;;;0.55;0.55;;;;;;;;;;5082323;28;20097;-76
2023/05/24 09:45:08;;;;;;;0.70;0.70;;;;;;;;;;5080088;28;20052;-76
2023/05/24 09:47:36;;;;;;;1.25;1.15;;;;;;;;;;5080502;28;20055;-76
2023/05/24 09:50:05;;;;;;;0.80;0.80;;;;;;;;;;5081727;28;20040;-76
2023/05/24 09:52:36;;;;;;;0.85;0.85;;;;;;;;;;5077263;28;20502;-77
2023/05/24 09:55:13;;;;;;;0.77;0.77;;;;;;;;;;5082025;28;20184;-77
2023/05/24 09:57:41;;;;;;;0.90;0.90;;;;;;;;;;5088303;28;20416;-76
2023/05/24 10:00:16;;;;;;;0.80;0.80;;;;;;;;;;5087442;28;20465;-76
2023/05/24 10:02:44;;;;;;;0.90;0.90;;;;;;;;;;5086437;28;20052;-76
2023/05/24 10:05:20;;;;;;;0.80;0.80;;;;;;;;;;5088076;28;20040;-77
2023/05/24 10:07:48;;;;;;;0.70;0.70;;;;;;;;;;5087686;28;20165;-77
2023/05/24 10:10:15;;;;;;;0.65;0.65;;;;;;;;;;5088306;28;20060;-77
2023/05/24 10:12:45;;;;;;;0.75;0.75;;;;;;;;;;5085370;28;20059;-77
2023/05/24 10:15:13;;;;;;;0.80;0.80;;;;;;;;;;5081075;28;20130;-76
2023/05/24 10:17:40;;;;;;;0.98;0.98;;;;;;;;;;5086484;28;20052;-76
2023/05/24 10:20:11;;;;;;;0.80;0.80;;;;;;;;;;5086817;28;20054;-77
2023/05/24 10:22:45;;;;;;;0.70;0.70;;;;;;;;;;5086385;28;20039;-76
2023/05/24 10:25:32;;;;;;;0.70;0.70;;;;;;;;;;5087366;28;20044;-76
2023/05/24 10:28:02;;;;;;;0.68;0.68;;;;;;;;;;5087429;28;20106;-76
2023/05/24 10:30:36;;;;;;;0.73;0.73;;;;;;;;;;5087100;28;20052;-76
2023/05/24 10:33:06;;;;;;;0.70;0.70;;;;;;;;;;5087099;28;20048;-76
2023/05/24 10:35:36;;;;;;;0.80;0.80;;;;;;;;;;5087384;28;20054;-77
2023/05/24 10:38:07;;;;;;;2.15;0.60;;;;;;;;;;5087340;28;20047;-77
2023/05/24 10:40:35;;;;;;;0.60;0.60;;;;;;;;;;5087032;28;20129;-76
2023/05/24 10:43:06;;;;;;;2.85;0.70;;;;;;;;;;5086119;28;20071;-76
2023/05/24 10:45:36;;;;;;;0.50;0.50;;;;;;;;;;5087015;28;20044;-76
2023/05/24 10:48:12;;;;;;;0.52;0.52;;;;;;;;;;5087696;28;20048;-76
2023/05/24 10:50:41;;;;;;;0.70;0.70;;;;;;;;;;5086897;28;20064;-77
2023/05/24 10:53:12;;;;;;;2.22;2.13;;;;;;;;;;5082073;28;20055;-76
2023/05/24 10:55:56;;;;;;;0.98;0.98;;;;;;;;;;5084437;28;20456;-78
2023/05/24 10:58:43;;;;;;;0.80;0.80;;;;;;;;;;5069044;28;20101;-77
2023/05/24 11:01:25;;;;;;;0.68;0.68;;;;;;;;;;5088069;28;20041;-75
2023/05/24 11:03:53;;;;;;;0.50;0.50;;;;;;;;;;5087176;28;20040;-76
2023/05/24 11:06:40;;;;;;;0.60;0.60;;;;;;;;;;5087197;28;20101;-77
2023/05/24 11:09:11;;;;;;;0.88;0.88;;;;;;;;;;5087424;28;20055;-76
2023/05/24 11:11:38;;;;;;;0.90;0.90;;;;;;;;;;5087552;28;20105;-77
2023/05/24 11:14:06;;;;;;;0.70;0.70;;;;;;;;;;5087083;28;20079;-77
2023/05/24 11:16:35;;;;;;;0.70;0.70;;;;;;;;;;5087321;28;20452;-77
2023/05/24 11:19:22;;;;;;;0.70;0.70;;;;;;;;;;5078916;28;20303;-76
2023/05/24 11:21:53;;;;;;;0.60;0.60;;;;;;;;;;5086777;28;20048;-77
2023/05/24 11:24:21;;;;;;;1.10;1.10;;;;;;;;;;5079486;28;20054;-77
2023/05/24 11:26:49;;;;;;;0.60;0.60;;;;;;;;;;5087502;28;20048;-77
2023/05/24 11:29:19;;;;;;;0.60;0.60;;;;;;;;;;5069780;28;20052;-77
2023/05/24 11:32:02;;;;;;;0.70;0.70;;;;;;;;;;5087621;28;20071;-77
2023/05/24 11:34:31;;;;;;;0.60;0.60;;;;;;;;;;5085788;28;20048;-77
2023/05/24 11:36:59;;;;;;;0.60;0.60;;;;;;;;;;5087243;28;20079;-77
2023/05/24 11:39:30;;;;;;;0.60;0.60;;;;;;;;;;5087063;28;20717;-77
2023/05/24 11:41:58;;;;;;;0.70;0.70;;;;;;;;;;5063673;28;20047;-77
2023/05/24 11:44:27;;;;;;;0.60;0.60;;;;;;;;;;5076871;28;20059;-77
2023/05/24 11:46:59;;;;;;;0.60;0.60;;;;;;;;;;5072778;28;20044;-77
2023/05/24 11:49:26;;;;;;;0.57;0.57;;;;;;;;;;5085566;28;20086;-77
2023/05/24 11:51:55;;;;;;;0.60;0.60;;;;;;;;;;5084637;28;20464;-77
2023/05/24 11:54:23;;;;;;;0.60;0.60;;;;;;;;;;5085242;28;20058;-77
2023/05/24 11:56:52;;;;;;;0.98;0.82;;;;;;;;;;5085588;28;20051;-76
2023/05/24 11:59:22;;;;;;;0.90;0.90;;;;;;;;;;5067590;28;20048;-77
2023/05/24 12:01:56;;;;;;;0.75;0.75;;;;;;;;;;5082048;28;20078;-77
2023/05/24 12:04:24;;;;;;;0.60;0.60;;;;;;;;;;5078530;28;20055;-77
2023/05/24 12:06:52;;;;;;;0.50;0.50;;;;;;;;;;5083071;28;20044;-77
2023/05/24 12:09:19;;;;;;;0.95;0.73;;;;;;;;;;5066772;28;20052;-77
2023/05/24 12:11:48;;;;;;;1.00;1.00;;;;;;;;;;5084693;28;20101;-77
2023/05/24 12:14:17;;;;;;;0.55;0.55;;;;;;;;;;5062516;28;20136;-77
2023/05/24 12:16:45;;;;;;;0.52;0.52;;;;;;;;;;5073076;28;20363;-77
2023/05/24 12:19:16;;;;;;;0.88;0.80;;;;;;;;;;5072965;28;20052;-76
2023/05/24 12:21:59;;;;;;;0.77;0.77;;;;;;;;;;5081181;28;20047;-78
2023/05/24 12:24:27;;;;;;;0.60;0.60;;;;;;;;;;5083883;28;20139;-79
2023/05/24 12:27:05;;;;;;;0.77;0.70;;;;;;;;;;5074753;28;20093;-78
2023/05/24 12:29:39;;;;;;;0.50;0.50;;;;;;;;;;5082342;28;20676;-79
2023/05/24 12:32:11;;;;;;;0.82;0.82;;;;;;;;;;5057615;28;20064;-77
2023/05/24 12:34:41;;;;;;;0.60;0.60;;;;;;;;;;5074715;28;20113;-78
2023/05/24 12:37:09;;;;;;;0.63;0.63;;;;;;;;;;5082974;28;20135;-77
2023/05/24 12:39:38;;;;;;;0.65;0.65;;;;;;;;;;5075449;28;20051;-77
2023/05/24 12:42:05;;;;;;;0.80;0.73;;;;;;;;;;5073683;28;20497;-77
2023/05/24 12:44:34;;;;;;;0.70;0.70;;;;;;;;;;5077605;28;20047;-78
2023/05/24 12:47:02;;;;;;;0.60;0.60;;;;;;;;;;5076720;28;20537;-78
2023/05/24 12:49:31;;;;;;;0.70;0.70;;;;;;;;;;5070767;28;20098;-77
2023/05/24 12:51:59;;;;;;;0.80;0.80;;;;;;;;;;5070519;28;20052;-77
2023/05/24 12:54:27;;;;;;;0.80;0.80;;;;;;;;;;5078061;28;20458;-76
2023/05/24 12:56:55;;;;;;;0.68;0.68;;;;;;;;;;5075970;28;20432;-77
2023/05/24 12:59:25;;;;;;;0.80;0.80;;;;;;;;;;5076020;28;20055;-77
2023/05/24 13:01:52;;;;;;;0.70;0.70;;;;;;;;;;5072166;28;20065;-75
2023/05/24 13:04:21;;;;;;;1.00;1.00;;;;;;;;;;5083166;28;20115;-78
2023/05/24 13:06:48;;;;;;;0.82;0.82;;;;;;;;;;5080941;28;20048;-77
2023/05/24 13:09:17;;;;;;;0.90;0.90;;;;;;;;;;5074120;28;20529;-77
2023/05/24 13:11:45;;;;;;;0.90;0.90;;;;;;;;;;5077753;28;20522;-78
2023/05/24 13:14:17;;;;;;;1.13;1.00;;;;;;;;;;5077451;28;20136;-76
2023/05/24 13:16:45;;;;;;;1.17;1.10;;;;;;;;;;5080124;28;20510;-76
2023/05/24 13:19:16;;;;;;;1.27;1.17;;;;;;;;;;5077120;28;20555;-76
2023/05/24 13:21:44;;;;;;;1.27;1.25;;;;;;;;;;5079254;28;20040;-75
2023/05/24 13:24:14;;;;;;;1.17;1.17;;;;;;;;;;5075706;28;20047;-76
2023/05/24 13:26:42;;;;;;;1.08;1.00;;;;;;;;;;5079053;28;20043;-76
2023/05/24 13:29:09;;;;;;;1.55;1.10;;;;;;;;;;5080011;28;20044;-76
2023/05/24 13:31:40;;;;;;;2.38;1.10;;;;;;;;;;5066799;28;20086;-76
2023/05/24 13:34:09;;;;;;;1.02;1.02;;;;;;;;;;5087819;28;20067;-75
2023/05/24 13:36:38;;;;;;;0.82;0.82;;;;;;;;;;5083095;28;20505;-76
2023/05/24 13:39:08;;;;;;;1.15;1.15;;;;;;;;;;5078208;28;20047;-75
2023/05/24 13:41:39;;;;;;;1.00;1.00;;;;;;;;;;5075458;28;20409;-76
2023/05/24 13:44:08;;;;;;;1.40;1.30;;;;;;;;;;5079282;28;20048;-76
2023/05/24 13:46:36;;;;;;;1.00;1.00;;;;;;;;;;5079895;28;20044;-76
2023/05/24 13:49:04;;;;;;;3.20;1.60;;;;;;;;;;5085619;28;20484;-76
2023/05/24 13:51:32;;;;;;;1.60;1.50;;;;;;;;;;5083083;28;20098;-76
2023/05/24 13:53:59;;;;;;;1.40;1.30;;;;;;;;;;5079228;28;20110;-77
2023/05/24 13:56:31;;;;;;;1.27;1.27;;;;;;;;;;5077721;28;20694;-77
2023/05/24 13:59:00;;;;;;;1.50;1.40;;;;;;;;;;5083035;28;20055;-77
2023/05/24 14:01:27;;;;;;;3.13;2.05;;;;;;;;;;5085884;28;20048;-77
2023/05/24 14:03:55;;;;;;;2.17;1.63;;;;;;;;;;5084390;28;20055;-77
2023/05/24 14:06:22;;;;;;;4.07;1.77;;;;;;;;;;5082921;28;20075;-77
2023/05/24 14:08:50;;;;;;;1.95;1.75;;;;;;;;;;5082718;28;20055;-77
2023/05/24 14:11:18;;;;;;;2.15;1.80;;;;;;;;;;5064990;28;20452;-77
2023/05/24 14:13:46;;;;;;;2.47;1.77;;;;;;;;;;5078309;28;20460;-78
2023/05/24 14:16:16;;;;;;;2.00;1.85;;;;;;;;;;5081336;28;20498;-78
2023/05/24 14:18:44;;;;;;;4.43;2.00;;;;;;;;;;5089088;28;20067;-77
2023/05/24 14:21:12;;;;;;;1.90;1.80;;;;;;;;;;5086672;28;20043;-78
2023/05/24 14:23:40;;;;;;;2.80;1.80;;;;;;;;;;5088727;28;20111;-78
2023/05/24 14:26:08;;;;;;;4.28;2.08;;;;;;;;;;5080069;28;20101;-78
2023/05/24 14:28:35;;;;;;;1.55;1.50;;;;;;;;;;5088964;28;20080;-78
2023/05/24 14:31:03;;;;;;;1.80;1.70;;;;;;;;;;5089084;28;20055;-77
2023/05/24 14:33:30;;;;;;;2.75;1.80;;;;;;;;;;5089135;28;20070;-78
2023/05/24 14:35:58;;;;;;;1.65;1.55;;;;;;;;;;5088840;28;20044;-78
2023/05/24 14:38:26;;;;;;;1.45;1.35;;;;;;;;;;5088536;28;20047;-76
2023/05/24 14:40:55;;;;;;;1.95;1.73;;;;;;;;;;5078047;28;20548;-77
2023/05/24 14:43:23;;;;;;;1.80;1.50;;;;;;;;;;5077831;28;20410;-78
2023/05/24 14:45:51;;;;;;;2.30;2.10;;;;;;;;;;5077563;28;20510;-77
2023/05/24 14:48:18;;;;;;;1.80;1.70;;;;;;;;;;5084034;28;20090;-78
2023/05/24 14:50:46;;;;;;;1.73;1.55;;;;;;;;;;5083519;28;20089;-77
2023/05/24 14:53:13;;;;;;;1.80;1.70;;;;;;;;;;5081371;28;20452;-78
2023/05/24 14:55:41;;;;;;;1.63;1.50;;;;;;;;;;5081231;28;20044;-78